createdAt,value
2023-02-08T00:03:41.453Z,101108.86
2023-02-08T00:13:47.705Z,101115.13
2023-02-08T00:23:54.846Z,101112.52
2023-02-08T00:34:01.018Z,101110.48
2023-02-08T00:44:05.604Z,101099.35
2023-02-08T00:54:14.365Z,101097.85
2023-02-08T01:04:21.544Z,101091.63
2023-02-08T01:14:29.005Z,101088.73
2023-02-08T01:24:35.193Z,101086.40
2023-02-08T01:34:44.177Z,101090.75
2023-02-08T01:45:07.204Z,101091.75
2023-02-08T01:55:17.843Z,101092.86
2023-02-08T02:05:24.345Z,101093.19
2023-02-08T02:15:31.393Z,101086.86
2023-02-08T02:26:01.741Z,101070.49
2023-02-08T02:36:07.770Z,101072.13
2023-02-08T02:46:17.002Z,101069.88
2023-02-08T02:56:24.729Z,101075.05
2023-02-08T03:06:32.821Z,101090.64
2023-02-08T03:16:41.583Z,101113.53
2023-02-08T03:26:54.306Z,101131.61
2023-02-08T03:37:06.480Z,101130.02
2023-02-08T03:47:19.254Z,101134.89
2023-02-08T03:57:27.659Z,101135.63
2023-02-08T04:07:35.279Z,101129.16
2023-02-08T04:17:42.492Z,101141.53
2023-02-08T04:27:49.790Z,101144.04
2023-02-08T04:37:57.015Z,101152.43
2023-02-08T04:48:04.118Z,101154.73
2023-02-08T04:58:11.529Z,101158.25
2023-02-08T05:08:18.833Z,101149.35
2023-02-08T05:18:25.799Z,101153.16
2023-02-08T05:28:32.739Z,101154.42
2023-02-08T05:38:39.960Z,101160.48
2023-02-08T05:48:48.229Z,101165.50
2023-02-08T05:58:55.645Z,101167.03
2023-02-08T06:09:02.760Z,101178.50
2023-02-08T06:19:10.321Z,101190.22
2023-02-08T06:29:17.352Z,101197.30
2023-02-08T06:39:25.109Z,101201.09
2023-02-08T06:49:32.404Z,101206.84
2023-02-08T06:59:39.694Z,101220.15
2023-02-08T07:09:47.165Z,101229.27
2023-02-08T07:19:54.238Z,101232.90
2023-02-08T07:30:01.309Z,101239.06
2023-02-08T07:40:06.368Z,101238.99
2023-02-08T07:50:12.339Z,101239.39
2023-02-08T08:00:21.214Z,101244.70
2023-02-08T08:10:28.570Z,101245.51
2023-02-08T08:20:35.929Z,101258.87
2023-02-08T08:30:44.214Z,101270.05
2023-02-08T08:40:51.542Z,101274.30
2023-02-08T08:50:58.856Z,101280.33
2023-02-08T09:01:05.370Z,101293.02
2023-02-08T09:11:14.985Z,101286.66
2023-02-08T09:21:23.629Z,101297.80
2023-02-08T09:31:34.294Z,101306.84
2023-02-08T09:41:47.726Z,101298.96
2023-02-08T09:51:58.914Z,101293.93
2023-02-08T10:02:13.640Z,101284.36
2023-02-08T10:12:24.351Z,101290.98
2023-02-08T10:22:29.932Z,101286.17
2023-02-08T10:32:41.563Z,101280.58
2023-02-08T10:42:46.804Z,101271.60
2023-02-08T10:52:54.037Z,101266.71
2023-02-08T11:03:02.108Z,101276.93
2023-02-08T11:13:19.746Z,101270.96
2023-02-08T11:23:25.776Z,101263.54
2023-02-08T11:33:33.471Z,101263.09
2023-02-08T11:43:40.970Z,101261.02
2023-02-08T11:53:49.562Z,101257.91
2023-02-08T12:03:59.362Z,101252.52
2023-02-08T12:14:37.384Z,101249.81
2023-02-08T12:24:42.929Z,101229.11
2023-02-08T12:34:57.962Z,101217.39
2023-02-08T12:45:17.622Z,101203.28
2023-02-08T12:55:30.999Z,101196.70
2023-02-08T13:05:39.021Z,101197.70
2023-02-08T13:15:48.873Z,101189.45
2023-02-08T13:25:56.921Z,101181.71
2023-02-08T13:36:04.910Z,101175.03
2023-02-08T13:56:40.330Z,101168.38
2023-02-08T14:06:47.705Z,101157.11
2023-02-08T14:17:17.651Z,101160.60
2023-02-08T14:27:28.671Z,101151.73
2023-02-08T14:37:37.152Z,101147.02
2023-02-08T14:48:08.598Z,101144.09
2023-02-08T14:58:14.301Z,101139.96
2023-02-08T15:08:22.030Z,101137.62
2023-02-08T15:18:34.068Z,101134.09
2023-02-08T15:28:46.942Z,101132.53
2023-02-08T15:38:55.289Z,101131.17
2023-02-08T15:49:03.088Z,101142.29
2023-02-08T15:59:20.395Z,101140.13
2023-02-08T16:09:30.581Z,101142.30
2023-02-08T16:19:37.631Z,101150.66
2023-02-08T16:29:49.492Z,101159.31
2023-02-08T16:39:54.506Z,101161.08
2023-02-08T16:50:01.777Z,101159.15
2023-02-08T17:00:15.636Z,101162.19
2023-02-08T17:10:22.185Z,101164.05
2023-02-08T17:20:32.475Z,101158.13
2023-02-08T17:30:42.337Z,101157.14
2023-02-08T17:40:50.072Z,101161.26
2023-02-08T17:50:57.943Z,101170.88
2023-02-08T18:01:05.532Z,101166.65
2023-02-08T18:11:18.099Z,101163.83
2023-02-08T18:21:26.298Z,101165.54
2023-02-08T18:31:33.982Z,101166.55
2023-02-08T18:41:42.443Z,101163.64
2023-02-08T18:51:50.399Z,101168.15
2023-02-08T19:01:57.836Z,101166.35
2023-02-08T19:12:05.825Z,101158.53
2023-02-08T19:22:13.061Z,101153.17
2023-02-08T19:32:20.233Z,101131.90
2023-02-08T19:42:28.015Z,101107.52
2023-02-08T19:52:34.415Z,101087.52
2023-02-08T20:02:39.476Z,101085.08
2023-02-08T20:12:45.630Z,101098.20
2023-02-08T20:22:52.733Z,101091.91
2023-02-08T20:32:58.576Z,101088.27
2023-02-08T20:43:06.084Z,101095.16
2023-02-08T20:53:14.623Z,101097.63
2023-02-08T21:03:22.069Z,101085.92
2023-02-08T21:13:29.427Z,101078.88
2023-02-08T21:23:37.539Z,101088.02
2023-02-08T21:33:44.974Z,101087.48
2023-02-08T21:43:54.492Z,101081.62
2023-02-08T21:54:18.860Z,101067.66
2023-02-08T22:04:26.155Z,101056.70
2023-02-08T22:14:34.862Z,101052.30
2023-02-08T22:24:42.154Z,101052.33
2023-02-08T22:34:50.101Z,101042.56
2023-02-08T22:44:56.889Z,101022.98
2023-02-08T22:55:04.621Z,101004.30
2023-02-08T23:05:09.196Z,100983.66
2023-02-08T23:15:16.185Z,100969.25
2023-02-08T23:25:22.654Z,100954.38
2023-02-08T23:35:29.725Z,100957.02
2023-02-08T23:45:37.558Z,100946.45
2023-02-08T23:55:45.973Z,100944.23
